Terminal Aerodrome Forecast
Issued by NWS

Home | Current Version | Previous Version | Text Only | Print | Product List | Glossary On
Versions: 1 2 3 4 5 6 7 8 9 10 11 12 13 14 15 16
436
FTUS46 KSTO 231345 AAA
TAFSMF
TAF AMD
KSMF 231345Z 2314/2412 VRB03KT 1SM BCFG BR BKN001
      TEMPO 2314/2316 1/4SM FG VV001
     FM231700 20007KT P6SM BKN250
     FM240300 18009KT P6SM OVC100
     FM241000 16012KT P6SM -RA OVC050=

USA.gov is the U.S. government's official web portal to all federal, state and local government web resources and services.